createdAt,value
2023-05-19T00:02:51.138Z,95252.56
2023-05-19T00:05:55.972Z,95240.09
2023-05-19T00:09:01.256Z,95251.50
2023-05-19T00:12:05.124Z,95250.50
2023-05-19T00:15:11.850Z,95242.22
2023-05-19T00:18:16.751Z,95231.34
2023-05-19T00:21:20.102Z,95230.56
2023-05-19T00:24:23.312Z,95230.78
2023-05-19T00:27:26.713Z,95237.47
2023-05-19T00:30:31.763Z,95238.06
2023-05-19T00:33:35.455Z,95240.13
2023-05-19T00:36:38.695Z,95233.53
2023-05-19T00:39:41.968Z,95232.72
2023-05-19T00:45:49.785Z,95222.09
2023-05-19T00:48:53.439Z,95210.75
2023-05-19T00:51:57.561Z,95225.84
2023-05-19T00:55:01.376Z,95221.13
2023-05-19T00:58:06.088Z,95215.59
2023-05-19T01:01:12.415Z,95216.97
2023-05-19T01:04:17.349Z,95220.03
2023-05-19T01:07:21.445Z,95220.53
2023-05-19T01:10:24.873Z,95207.91
2023-05-19T01:13:30.670Z,95230.19
2023-05-19T01:16:41.540Z,95228.59
2023-05-19T01:19:57.530Z,95236.56
2023-05-19T01:23:36.956Z,95232.34
2023-05-19T01:27:24.262Z,95230.97
2023-05-19T01:30:35.189Z,95224.84
2023-05-19T01:33:41.106Z,95217.16
2023-05-19T01:36:45.979Z,95233.44
2023-05-19T01:39:50.353Z,95241.41
2023-05-19T01:42:57.392Z,95230.78
2023-05-19T01:46:03.790Z,95224.94
2023-05-19T01:49:07.781Z,95229.25
2023-05-19T01:52:11.066Z,95233.50
2023-05-19T01:55:14.514Z,95232.94
2023-05-19T01:58:24.043Z,95227.13
2023-05-19T02:01:35.421Z,95229.78
2023-05-19T02:04:45.472Z,95237.75
2023-05-19T02:07:59.307Z,95236.69
2023-05-19T02:11:09.339Z,95236.69
2023-05-19T02:14:17.519Z,95240.13
2023-05-19T02:17:24.628Z,95241.22
2023-05-19T02:20:28.074Z,95235.09
2023-05-19T02:23:31.331Z,95236.69
2023-05-19T02:26:34.472Z,95242.78
2023-05-19T02:29:37.655Z,95230.94
2023-05-19T02:32:42.175Z,95238.31
2023-05-19T02:35:45.380Z,95230.16
2023-05-19T02:38:50.310Z,95238.63
2023-05-19T02:41:53.409Z,95240.47
2023-05-19T02:44:56.803Z,95238.91
2023-05-19T02:48:01.527Z,95240.97
2023-05-19T02:51:05.445Z,95239.19
2023-05-19T02:54:08.604Z,95224.22
2023-05-19T02:57:12.032Z,95236.25
2023-05-19T03:00:16.233Z,95243.94
2023-05-19T03:03:20.855Z,95249.25
2023-05-19T03:06:24.465Z,95250.63
2023-05-19T03:09:27.579Z,95253.09
2023-05-19T03:12:31.775Z,95251.72
2023-05-19T03:15:35.353Z,95257.63
2023-05-19T03:18:40.007Z,95257.03
2023-05-19T03:21:43.103Z,95260.69
2023-05-19T03:24:46.284Z,95253.00
2023-05-19T03:27:49.492Z,95249.53
2023-05-19T03:30:52.658Z,95255.34
2023-05-19T03:33:57.978Z,95253.72
2023-05-19T03:37:01.060Z,95256.88
2023-05-19T03:40:05.769Z,95256.09
2023-05-19T03:43:09.198Z,95253.44
2023-05-19T03:46:12.348Z,95264.84
2023-05-19T03:49:17.032Z,95256.38
2023-05-19T03:52:20.256Z,95258.75
2023-05-19T03:55:23.500Z,95265.94
2023-05-19T03:58:26.867Z,95256.44
2023-05-19T04:01:30.101Z,95264.22
2023-05-19T04:04:34.807Z,95267.75
2023-05-19T04:07:37.994Z,95263.22
2023-05-19T04:10:41.313Z,95273.78
2023-05-19T04:13:45.254Z,95271.91
2023-05-19T04:16:48.591Z,95278.22
2023-05-19T04:19:53.187Z,95273.31
2023-05-19T04:22:56.331Z,95287.13
2023-05-19T04:26:00.614Z,95289.78
2023-05-19T04:29:04.952Z,95282.97
2023-05-19T04:32:08.546Z,95289.63
2023-05-19T04:35:13.804Z,95295.50
2023-05-19T04:38:19.072Z,95294.66
2023-05-19T04:41:23.127Z,95287.25
2023-05-19T04:44:26.349Z,95296.88
2023-05-19T04:47:30.231Z,95284.97
2023-05-19T04:50:35.530Z,95296.41
2023-05-19T04:53:40.375Z,95290.34
2023-05-19T04:56:43.877Z,95302.63
2023-05-19T04:59:47.375Z,95304.94
2023-05-19T05:02:51.039Z,95300.22
2023-05-19T05:05:56.854Z,95303.41
2023-05-19T05:09:00.778Z,95306.59
2023-05-19T05:12:04.817Z,95303.16
2023-05-19T05:15:09.319Z,95297.84
2023-05-19T05:18:13.256Z,95301.28
2023-05-19T05:21:18.422Z,95291.22
2023-05-19T05:24:22.214Z,95302.56
2023-05-19T05:27:25.392Z,95304.94
2023-05-19T05:30:28.509Z,95302.28
2023-05-19T05:33:31.706Z,95305.94
2023-05-19T05:36:36.311Z,95305.66
2023-05-19T05:39:39.471Z,95302.69
2023-05-19T05:42:43.009Z,95309.25
2023-05-19T05:45:46.307Z,95305.50
2023-05-19T05:48:50.284Z,95303.34
2023-05-19T05:52:05.480Z,95315.19
2023-05-19T05:55:10.926Z,95318.88
2023-05-19T05:58:14.927Z,95323.59
2023-05-19T06:01:24.192Z,95328.84
2023-05-19T06:04:27.377Z,95329.34
2023-05-19T06:07:32.003Z,95333.56
2023-05-19T06:10:35.745Z,95335.59
2023-05-19T06:13:41.463Z,95331.16
2023-05-19T06:16:44.650Z,95338.28
2023-05-19T06:19:48.248Z,95336.66
2023-05-19T06:22:53.044Z,95332.63
2023-05-19T06:25:56.402Z,95335.47
2023-05-19T06:28:59.587Z,95335.69
2023-05-19T06:32:02.825Z,95337.25
2023-05-19T06:35:06.935Z,95335.38
2023-05-19T06:38:11.546Z,95333.44
2023-05-19T06:41:14.910Z,95341.94
2023-05-19T06:44:20.437Z,95344.69
2023-05-19T06:47:24.275Z,95343.22
2023-05-19T06:50:27.725Z,95331.22
2023-05-19T06:53:32.404Z,95335.91
2023-05-19T06:56:36.535Z,95334.16
2023-05-19T06:59:40.970Z,95346.94
2023-05-19T07:02:44.313Z,95344.84
2023-05-19T07:05:48.137Z,95346.19
2023-05-19T07:08:52.715Z,95346.41
2023-05-19T07:11:56.619Z,95350.19
2023-05-19T07:14:59.808Z,95352.16
2023-05-19T07:18:03.061Z,95358.56
2023-05-19T07:21:07.384Z,95351.84
2023-05-19T07:24:11.969Z,95349.41
2023-05-19T07:27:15.503Z,95354.97
2023-05-19T07:30:18.675Z,95357.03
2023-05-19T07:33:21.850Z,95357.03
2023-05-19T07:36:25.102Z,95356.22
2023-05-19T07:39:29.918Z,95352.06
2023-05-19T07:42:33.116Z,95356.13
2023-05-19T07:45:36.414Z,95350.50
2023-05-19T07:48:39.646Z,95358.41
2023-05-19T07:51:43.019Z,95352.31
2023-05-19T07:54:47.704Z,95358.81
2023-05-19T07:57:51.025Z,95346.03
2023-05-19T08:00:54.162Z,95352.03
2023-05-19T08:03:57.905Z,95346.50
2023-05-19T08:07:01.138Z,95345.38
2023-05-19T08:10:06.314Z,95352.16
2023-05-19T08:13:09.428Z,95356.06
2023-05-19T08:16:12.648Z,95348.22
2023-05-19T08:19:15.996Z,95350.09
2023-05-19T08:22:19.208Z,95350.41
2023-05-19T08:25:23.781Z,95350.41
2023-05-19T08:28:27.058Z,95346.53
2023-05-19T08:31:30.532Z,95338.59
2023-05-19T08:34:33.772Z,95340.81
2023-05-19T08:37:38.767Z,95340.47
2023-05-19T08:40:44.134Z,95348.06
2023-05-19T08:43:47.376Z,95350.88
2023-05-19T08:46:51.250Z,95345.50
2023-05-19T08:50:07.781Z,95344.63
2023-05-19T08:53:31.880Z,95336.59
2023-05-19T08:56:39.546Z,95340.81
2023-05-19T08:59:44.906Z,95343.47
2023-05-19T09:03:00.283Z,95337.31
2023-05-19T09:06:09.657Z,95336.50
2023-05-19T09:09:13.129Z,95334.44
2023-05-19T09:12:17.669Z,95334.56
2023-05-19T09:15:20.770Z,95327.53
2023-05-19T09:18:25.753Z,95319.59
2023-05-19T09:21:31.621Z,95319.72
2023-05-19T09:24:36.093Z,95318.72
2023-05-19T09:27:40.578Z,95318.69
2023-05-19T09:30:43.774Z,95325.09
2023-05-19T09:33:46.892Z,95317.19
2023-05-19T09:36:50.909Z,95314.50
2023-05-19T09:39:54.668Z,95319.34
2023-05-19T09:42:59.180Z,95315.31
2023-05-19T09:46:04.963Z,95316.53
2023-05-19T09:49:10.771Z,95316.56
2023-05-19T09:52:17.882Z,95304.06
2023-05-19T09:55:23.262Z,95310.13
2023-05-19T09:58:28.288Z,95309.47
2023-05-19T10:01:33.717Z,95300.50
2023-05-19T10:04:37.594Z,95302.81
2023-05-19T10:07:42.181Z,95302.59
2023-05-19T10:10:48.127Z,95295.59
2023-05-19T10:13:53.447Z,95290.53
2023-05-19T10:16:58.247Z,95296.34
2023-05-19T10:20:02.419Z,95294.22
2023-05-19T10:23:05.579Z,95292.63
2023-05-19T10:26:10.037Z,95284.13
2023-05-19T10:29:18.727Z,95279.31
2023-05-19T10:32:28.159Z,95283.00
2023-05-19T10:36:10.968Z,95278.75
2023-05-19T10:39:19.149Z,95274.50
2023-05-19T10:42:33.442Z,95274.44
2023-05-19T10:45:43.373Z,95280.78
2023-05-19T10:48:47.510Z,95275.88
2023-05-19T10:51:50.982Z,95278.13
2023-05-19T10:54:54.888Z,95267.19
2023-05-19T10:57:58.381Z,95273.66
2023-05-19T11:01:03.327Z,95266.06
2023-05-19T11:04:08.110Z,95264.88
2023-05-19T11:07:11.470Z,95259.75
2023-05-19T11:10:14.837Z,95258.06
2023-05-19T11:13:23.159Z,95264.47
2023-05-19T11:16:32.787Z,95248.16
2023-05-19T11:19:37.436Z,95248.84
2023-05-19T11:22:41.395Z,95246.06
2023-05-19T11:25:47.162Z,95256.28
2023-05-19T11:28:50.845Z,95257.31
2023-05-19T11:31:56.043Z,95258.16
2023-05-19T11:34:59.269Z,95272.09
2023-05-19T11:38:03.272Z,95282.72
2023-05-19T11:41:06.611Z,95297.03
2023-05-19T11:44:12.428Z,95300.28
2023-05-19T11:47:17.725Z,95300.59
2023-05-19T11:50:21.347Z,95292.19
2023-05-19T11:53:25.079Z,95300.88
2023-05-19T11:56:28.185Z,95332.09
2023-05-19T11:59:33.445Z,95344.19
2023-05-19T12:02:40.161Z,95350.19
2023-05-19T12:05:46.063Z,95348.75
2023-05-19T12:08:52.564Z,95347.34
2023-05-19T12:11:56.694Z,95340.41
2023-05-19T12:14:59.852Z,95337.53
2023-05-19T12:18:04.796Z,95329.94
2023-05-19T12:21:08.142Z,95335.88
2023-05-19T12:24:11.331Z,95327.06
2023-05-19T12:27:19.633Z,95324.91
2023-05-19T12:30:28.688Z,95323.81
2023-05-19T12:33:35.673Z,95329.09
2023-05-19T12:36:39.527Z,95322.25
2023-05-19T12:39:43.945Z,95328.03
2023-05-19T12:42:48.746Z,95322.31
2023-05-19T12:45:52.466Z,95309.91
2023-05-19T12:49:00.832Z,95306.06
2023-05-19T12:52:07.092Z,95300.25
2023-05-19T12:55:14.412Z,95296.31
2023-05-19T12:58:17.822Z,95290.03
2023-05-19T13:01:21.094Z,95292.22
2023-05-19T13:04:26.364Z,95289.97
2023-05-19T13:07:29.734Z,95278.94
2023-05-19T13:10:33.332Z,95277.66
2023-05-19T13:13:37.130Z,95280.66
2023-05-19T13:16:40.340Z,95268.50
2023-05-19T13:19:44.981Z,95269.59
2023-05-19T13:22:48.839Z,95267.25
2023-05-19T13:25:52.913Z,95254.81
2023-05-19T13:28:56.022Z,95256.38
2023-05-19T13:32:01.186Z,95261.88
2023-05-19T13:35:06.969Z,95256.53
2023-05-19T13:38:11.207Z,95259.19
2023-05-19T13:41:16.003Z,95251.03
2023-05-19T13:44:19.367Z,95256.34
2023-05-19T13:51:49.983Z,95253.50
2023-05-19T13:59:18.920Z,95247.16
2023-05-19T14:02:22.181Z,95249.22
2023-05-19T14:05:25.441Z,95254.38
2023-05-19T14:08:30.014Z,95243.72
2023-05-19T14:11:33.356Z,95244.31
2023-05-19T14:14:36.642Z,95244.81
2023-05-19T14:17:39.909Z,95246.50
2023-05-19T14:20:43.118Z,95237.88
2023-05-19T14:23:47.736Z,95245.91
2023-05-19T14:26:51.233Z,95240.09
2023-05-19T14:29:54.322Z,95241.34
2023-05-19T14:32:58.111Z,95241.66
2023-05-19T14:36:01.833Z,95238.97
2023-05-19T14:39:06.587Z,95248.56
2023-05-19T14:42:10.594Z,95251.31
2023-05-19T14:45:14.188Z,95261.03
2023-05-19T14:48:17.672Z,95257.84
2023-05-19T14:51:20.988Z,95257.84
2023-05-19T14:54:25.605Z,95265.28
2023-05-19T14:57:28.773Z,95265.69
2023-05-19T15:00:32.268Z,95274.78
2023-05-19T15:03:35.932Z,95270.22
2023-05-19T15:06:39.195Z,95273.50
2023-05-19T15:09:43.878Z,95279.63
2023-05-19T15:12:47.082Z,95276.16
2023-05-19T15:15:50.424Z,95281.97
2023-05-19T15:18:53.721Z,95276.81
2023-05-19T15:21:56.955Z,95279.19
2023-05-19T15:25:01.625Z,95276.53
2023-05-19T15:28:05.190Z,95269.31
2023-05-19T15:31:08.843Z,95270.22
2023-05-19T15:34:12.088Z,95267.88
2023-05-19T15:37:15.517Z,95273.19
2023-05-19T15:40:20.648Z,95266.78
2023-05-19T15:43:23.775Z,95271.63
2023-05-19T15:46:27.442Z,95276.16
2023-05-19T15:49:30.676Z,95284.47
2023-05-19T15:52:34.081Z,95274.91
2023-05-19T15:55:38.756Z,95285.06
2023-05-19T15:58:42.554Z,95283.97
2023-05-19T16:01:45.757Z,95280.06
2023-05-19T16:04:49.083Z,95276.91
2023-05-19T16:07:52.605Z,95281.78
2023-05-19T16:10:57.475Z,95285.25
2023-05-19T16:14:00.626Z,95287.81
2023-05-19T16:17:04.020Z,95274.28
2023-05-19T16:20:08.520Z,95275.16
2023-05-19T16:23:11.917Z,95283.84
2023-05-19T16:26:17.001Z,95280.09
2023-05-19T16:29:20.117Z,95279.00
2023-05-19T16:32:23.707Z,95278.69
2023-05-19T16:35:27.947Z,95277.91
2023-05-19T16:38:31.140Z,95279.47
2023-05-19T16:41:35.717Z,95282.44
2023-05-19T16:44:38.866Z,95287.78
2023-05-19T16:47:41.934Z,95280.88
2023-05-19T16:50:45.276Z,95280.56
2023-05-19T16:53:48.759Z,95276.31
2023-05-19T16:56:53.726Z,95285.41
2023-05-19T16:59:56.820Z,95279.28
2023-05-19T17:03:02.119Z,95287.66
2023-05-19T17:06:05.321Z,95286.75
2023-05-19T17:09:08.550Z,95290.50
2023-05-19T17:12:13.470Z,95293.16
2023-05-19T17:15:17.025Z,95289.13
2023-05-19T17:18:20.136Z,95282.81
2023-05-19T17:21:23.238Z,95287.56
2023-05-19T17:24:26.399Z,95292.28
2023-05-19T17:27:30.945Z,95299.00
2023-05-19T17:30:34.705Z,95306.72
2023-05-19T17:33:38.171Z,95305.13
2023-05-19T17:36:41.592Z,95304.34
2023-05-19T17:39:44.700Z,95307.00
2023-05-19T17:42:49.184Z,95307.28
2023-05-19T17:45:52.541Z,95315.00
2023-05-19T17:48:55.714Z,95318.47
2023-05-19T17:51:59.390Z,95316.06
2023-05-19T17:55:03.120Z,95317.47
2023-05-19T17:58:08.225Z,95329.13
2023-05-19T18:01:11.824Z,95326.66
2023-05-19T18:04:16.252Z,95323.69
2023-05-19T18:07:19.554Z,95335.13
2023-05-19T18:10:26.727Z,95334.53
2023-05-19T18:13:31.250Z,95335.19
2023-05-19T18:16:34.579Z,95330.66
2023-05-19T18:19:37.762Z,95338.38
2023-05-19T18:22:40.860Z,95345.59
2023-05-19T18:25:50.557Z,95346.06
2023-05-19T18:28:55.117Z,95349.22
2023-05-19T18:31:58.304Z,95352.16
2023-05-19T18:35:01.447Z,95359.22
2023-05-19T18:38:04.654Z,95365.25
2023-05-19T18:41:08.080Z,95370.59
2023-05-19T18:44:12.757Z,95373.75
2023-05-19T18:47:16.260Z,95370.44
2023-05-19T18:50:19.485Z,95384.44
2023-05-19T18:53:22.875Z,95397.22
2023-05-19T18:56:26.461Z,95393.59
2023-05-19T18:59:31.082Z,95402.50
2023-05-19T19:02:34.398Z,95406.97
2023-05-19T19:05:37.577Z,95416.25
2023-05-19T19:08:40.753Z,95410.44
2023-05-19T19:11:43.876Z,95418.50
2023-05-19T19:14:48.441Z,95407.63
2023-05-19T19:17:51.678Z,95413.44
2023-05-19T19:20:54.975Z,95412.63
2023-05-19T19:23:58.691Z,95403.38
2023-05-19T19:27:01.839Z,95400.69
2023-05-19T19:30:07.693Z,95407.25
2023-05-19T19:33:11.252Z,95400.97
2023-05-19T19:36:14.459Z,95408.06
2023-05-19T19:39:17.638Z,95416.91
2023-05-19T19:42:20.864Z,95413.78
2023-05-19T19:45:25.354Z,95406.41
2023-05-19T19:48:28.786Z,95413.47
2023-05-19T19:51:32.443Z,95422.28
2023-05-19T19:54:35.679Z,95416.28
2023-05-19T19:57:38.798Z,95421.63
2023-05-19T20:00:43.304Z,95428.25
2023-05-19T20:03:46.530Z,95428.25
2023-05-19T20:06:49.850Z,95432.31
2023-05-19T20:09:53.384Z,95441.72
2023-05-19T20:12:58.869Z,95437.03
2023-05-19T20:16:03.646Z,95444.75
2023-05-19T20:19:09.196Z,95445.69
2023-05-19T20:22:12.656Z,95440.19
2023-05-19T20:25:15.955Z,95451.03
2023-05-19T20:28:19.301Z,95445.72
2023-05-19T20:31:25.939Z,95447.59
2023-05-19T20:34:29.109Z,95455.28
2023-05-19T20:37:32.306Z,95456.19
2023-05-19T20:40:35.506Z,95458.34
2023-05-19T20:43:38.656Z,95447.25
2023-05-19T20:46:43.169Z,95448.59
2023-05-19T20:49:46.625Z,95439.72
2023-05-19T20:52:49.700Z,95439.09
2023-05-19T20:55:52.895Z,95435.50
2023-05-19T20:58:56.293Z,95430.13
2023-05-19T21:02:00.912Z,95434.44
2023-05-19T21:05:04.516Z,95431.34
2023-05-19T21:08:12.968Z,95438.91
2023-05-19T21:11:16.825Z,95431.75
2023-05-19T21:14:20.040Z,95433.13
2023-05-19T21:17:24.537Z,95421.84
2023-05-19T21:20:29.257Z,95424.13
2023-05-19T21:23:32.405Z,95419.53
2023-05-19T21:26:35.626Z,95417.00
2023-05-19T21:29:38.767Z,95426.19
2023-05-19T21:32:43.451Z,95428.38
2023-05-19T21:35:46.900Z,95431.94
2023-05-19T21:38:50.262Z,95424.84
2023-05-19T21:41:53.375Z,95420.41
2023-05-19T21:44:56.684Z,95418.81
2023-05-19T21:48:01.296Z,95419.75
2023-05-19T21:51:04.583Z,95417.66
2023-05-19T21:54:07.712Z,95414.81
2023-05-19T21:57:11.251Z,95412.72
2023-05-19T22:00:15.298Z,95422.63
2023-05-19T22:03:20.230Z,95432.00
2023-05-19T22:06:23.418Z,95421.47
2023-05-19T22:09:26.552Z,95416.69
2023-05-19T22:12:29.694Z,95422.63
2023-05-19T22:15:32.872Z,95411.75
2023-05-19T22:18:37.444Z,95414.72
2023-05-19T22:21:40.587Z,95416.09
2023-05-19T22:24:43.863Z,95407.00
2023-05-19T22:27:47.000Z,95407.44
2023-05-19T22:30:50.149Z,95407.91
2023-05-19T22:33:54.747Z,95411.19
2023-05-19T22:36:57.988Z,95409.63
2023-05-19T22:40:01.193Z,95415.25
2023-05-19T22:43:04.376Z,95408.13
2023-05-19T22:46:07.516Z,95418.47
2023-05-19T22:49:12.089Z,95417.22
2023-05-19T22:52:15.181Z,95417.50
2023-05-19T22:55:18.335Z,95412.19
2023-05-19T22:58:21.568Z,95416.22
2023-05-19T23:01:24.818Z,95409.63
2023-05-19T23:04:29.644Z,95415.25
2023-05-19T23:07:32.826Z,95418.91
2023-05-19T23:10:36.030Z,95408.34
2023-05-19T23:13:39.134Z,95401.72
2023-05-19T23:16:42.313Z,95399.34
2023-05-19T23:19:46.959Z,95396.47
2023-05-19T23:22:50.096Z,95397.75
2023-05-19T23:25:53.247Z,95396.00
2023-05-19T23:28:58.647Z,95384.53
2023-05-19T23:32:01.883Z,95391.25
2023-05-19T23:35:14.201Z,95390.66
2023-05-19T23:38:17.540Z,95380.59
2023-05-19T23:41:22.472Z,95373.69
2023-05-19T23:44:26.436Z,95371.50
2023-05-19T23:47:29.517Z,95363.81
2023-05-19T23:50:34.190Z,95365.69
2023-05-19T23:53:37.300Z,95362.53
2023-05-19T23:56:40.380Z,95365.50
2023-05-19T23:59:43.484Z,95361.25
